Time;durP1;ratioP1;P1;durP2;ratioP2;P2;SDS_P1;SDS_P2;PMS_P1;PMS_P2;Temp;Humidity;BMP_temperature;BMP_pressure;BME280_temperature;BME280_humidity;BME280_pressure;Samples;Min_cycle;Max_cycle;Signal;HPM_P1;HPM_P2
2023/09/16 00:01:35;;;;;;;13.55;2.58;;;39.30;29.10;;;;;;5047010;28;20085;-65
2023/09/16 00:04:02;;;;;;;4.97;1.70;;;39.30;31.10;;;;;;5054558;28;20219;-65
2023/09/16 00:06:28;;;;;;;8.13;1.75;;;39.20;30.10;;;;;;5053926;28;20016;-66
2023/09/16 00:08:55;;;;;;;9.40;1.50;;;39.10;29.10;;;;;;5057775;28;20029;-66
2023/09/16 00:11:22;;;;;;;9.10;2.20;;;39.00;28.70;;;;;;5055480;28;20024;-67
2023/09/16 00:13:49;;;;;;;10.73;2.20;;;38.90;28.40;;;;;;5052188;28;20038;-68
2023/09/16 00:16:15;;;;;;;9.95;2.00;;;38.90;28.50;;;;;;5055947;28;20108;-67
2023/09/16 00:18:42;;;;;;;8.48;2.90;;;38.80;28.70;;;;;;5056852;28;20063;-67
2023/09/16 00:21:10;;;;;;;6.93;1.98;;;38.80;28.90;;;;;;5054327;28;20021;-68
2023/09/16 00:23:37;;;;;;;8.45;1.52;;;38.70;28.10;;;;;;5055963;28;20378;-66
2023/09/16 00:26:04;;;;;;;13.25;2.42;;;38.80;29.40;;;;;;5051590;28;20478;-67
2023/09/16 00:28:35;;;;;;;10.60;2.15;;;38.70;31.20;;;;;;5051240;28;20047;-67
2023/09/16 00:31:02;;;;;;;9.80;2.22;;;38.70;28.60;;;;;;5050448;28;20032;-66
2023/09/16 00:33:29;;;;;;;6.50;1.63;;;38.60;28.80;;;;;;5056433;28;20029;-65
2023/09/16 00:35:56;;;;;;;9.52;2.03;;;38.60;28.40;;;;;;5056712;28;20008;-65
2023/09/16 00:38:23;;;;;;;10.45;1.73;;;38.60;28.60;;;;;;5052374;28;20435;-64
2023/09/16 00:40:50;;;;;;;13.93;2.55;;;38.50;29.50;;;;;;5051592;28;20009;-66
2023/09/16 00:43:16;;;;;;;8.52;1.83;;;38.40;29.50;;;;;;5050694;28;20468;-65
2023/09/16 00:45:42;;;;;;;8.70;2.15;;;38.40;29.60;;;;;;5049637;28;20025;-67
2023/09/16 00:48:12;;;;;;;11.65;2.08;;;38.30;29.30;;;;;;5050138;28;20028;-66
2023/09/16 00:50:39;;;;;;;14.10;1.95;;;38.30;28.90;;;;;;5050976;28;20055;-66
2023/09/16 00:53:06;;;;;;;6.30;1.90;;;38.20;28.00;;;;;;5059395;28;20422;-67
2023/09/16 00:55:32;;;;;;;14.40;1.67;;;38.20;28.40;;;;;;5052852;28;20559;-66
2023/09/16 00:57:59;;;;;;;11.15;1.77;;;38.10;29.00;;;;;;5053725;28;20440;-68
2023/09/16 01:00:28;;;;;;;8.77;1.98;;;38.00;28.80;;;;;;5058064;28;20048;-67
2023/09/16 01:02:58;;;;;;;9.48;1.65;;;38.00;29.30;;;;;;5058867;28;20079;-65
2023/09/16 01:05:25;;;;;;;9.98;1.63;;;37.90;29.10;;;;;;5059784;28;20025;-67
2023/09/16 01:07:52;;;;;;;9.45;1.90;;;37.90;29.40;;;;;;5058948;28;20039;-67
2023/09/16 01:10:18;;;;;;;21.83;3.40;;;37.80;29.40;;;;;;5057322;28;20216;-66
2023/09/16 01:12:46;;;;;;;25.20;3.90;;;37.80;29.60;;;;;;5056463;28;20104;-67
2023/09/16 01:15:14;;;;;;;25.30;4.47;;;37.70;29.70;;;;;;5057907;28;20012;-65
2023/09/16 01:18:00;;;;;;;20.30;4.47;;;37.70;30.00;;;;;;5058736;28;20420;-66
2023/09/16 01:20:28;;;;;;;18.20;4.43;;;37.60;30.00;;;;;;5060564;28;20041;-67
2023/09/16 01:22:55;;;;;;;21.70;4.28;;;37.50;30.30;;;;;;5053835;28;20039;-66
2023/09/16 01:25:26;;;;;;;15.98;3.72;;;37.50;31.10;;;;;;5056401;28;20070;-66
2023/09/16 01:27:53;;;;;;;20.10;4.03;;;37.40;30.90;;;;;;5056996;28;20467;-64
2023/09/16 01:30:19;;;;;;;13.02;3.78;;;37.40;31.30;;;;;;5057272;28;20016;-66
2023/09/16 01:32:50;;;;;;;30.05;4.20;;;37.30;31.50;;;;;;5054420;28;20472;-64
2023/09/16 01:35:18;;;;;;;25.25;4.80;;;37.10;30.50;;;;;;5056468;28;20028;-65
2023/09/16 01:37:49;;;;;;;25.02;3.88;;;37.00;30.40;;;;;;5051505;28;20017;-67
2023/09/16 01:40:18;;;;;;;24.88;4.78;;;37.00;30.50;;;;;;5055474;28;20088;-66
2023/09/16 01:42:45;;;;;;;22.92;4.90;;;37.00;30.70;;;;;;5061930;28;20024;-66
2023/09/16 01:45:11;;;;;;;26.70;4.18;;;36.90;31.80;;;;;;5055498;28;20110;-65
2023/09/16 01:47:38;;;;;;;34.08;4.85;;;36.80;31.60;;;;;;5055777;28;20039;-66
2023/09/16 01:50:05;;;;;;;28.45;4.72;;;36.70;31.10;;;;;;5047134;28;20023;-67
2023/09/16 01:52:32;;;;;;;30.45;5.03;;;36.70;30.70;;;;;;5052071;28;20013;-66
2023/09/16 01:54:58;;;;;;;30.60;5.35;;;36.60;30.70;;;;;;5055359;28;20059;-65
2023/09/16 01:57:24;;;;;;;39.85;5.70;;;36.60;30.90;;;;;;5061046;28;20013;-69
2023/09/16 01:59:51;;;;;;;31.85;5.28;;;36.50;32.60;;;;;;5050117;28;20024;-68
2023/09/16 02:02:17;;;;;;;36.97;6.07;;;36.40;32.60;;;;;;5054785;28;20099;-70
2023/09/16 02:04:44;;;;;;;33.10;5.85;;;36.40;31.40;;;;;;5055939;28;20122;-69
2023/09/16 02:07:12;;;;;;;27.95;5.93;;;36.30;32.30;;;;;;5056604;28;20033;-69
2023/09/16 02:09:41;;;;;;;33.50;5.93;;;36.20;32.10;;;;;;5058829;28;20540;-68
2023/09/16 02:12:07;;;;;;;29.58;5.95;;;36.10;33.00;;;;;;5060899;28;20124;-69
2023/09/16 02:14:38;;;;;;;32.67;5.75;;;36.00;33.00;;;;;;5061001;28;20058;-68
2023/09/16 02:17:07;;;;;;;36.58;6.18;;;35.90;33.10;;;;;;5055250;28;20023;-66
2023/09/16 02:19:33;;;;;;;24.23;6.32;;;35.80;33.00;;;;;;5052358;28;20028;-67
2023/09/16 02:22:00;;;;;;;21.58;4.88;;;35.70;33.30;;;;;;5060770;28;20031;-69
2023/09/16 02:24:26;;;;;;;33.53;5.97;;;35.60;33.40;;;;;;5058273;28;20166;-70
2023/09/16 02:26:53;;;;;;;27.23;5.85;;;35.50;33.40;;;;;;5057258;28;20179;-70
2023/09/16 02:29:19;;;;;;;29.63;5.32;;;35.40;33.70;;;;;;5053965;28;20475;-67
2023/09/16 02:31:45;;;;;;;29.35;5.72;;;35.30;34.10;;;;;;5055710;28;20107;-67
2023/09/16 02:34:12;;;;;;;40.53;6.10;;;35.10;33.90;;;;;;5059227;28;20071;-68
2023/09/16 02:36:38;;;;;;;29.10;6.25;;;35.10;34.00;;;;;;5057916;28;20100;-66
2023/09/16 02:39:05;;;;;;;31.65;6.43;;;35.00;34.00;;;;;;5055444;28;20414;-65
2023/09/16 02:41:31;;;;;;;38.67;6.20;;;34.90;35.00;;;;;;5055985;28;20020;-66
2023/09/16 02:43:57;;;;;;;33.45;6.10;;;34.90;35.10;;;;;;5059822;28;22435;-67
2023/09/16 02:46:24;;;;;;;27.50;7.28;;;34.80;35.00;;;;;;5055451;28;20112;-65
2023/09/16 02:48:50;;;;;;;39.28;8.50;;;34.70;35.00;;;;;;5058717;28;20479;-67
2023/09/16 02:51:17;;;;;;;41.80;8.07;;;34.70;35.50;;;;;;5060581;28;20008;-65
2023/09/16 02:53:43;;;;;;;35.47;8.43;;;34.60;35.50;;;;;;5056618;28;20097;-65
2023/09/16 02:56:10;;;;;;;39.03;9.32;;;34.60;35.40;;;;;;5059037;28;20033;-67
2023/09/16 02:58:37;;;;;;;38.15;9.57;;;34.50;35.60;;;;;;5054703;28;20045;-65
2023/09/16 03:01:10;;;;;;;44.78;9.85;;;34.40;35.70;;;;;;5053096;28;20024;-66
2023/09/16 03:03:37;;;;;;;41.00;9.95;;;34.30;35.30;;;;;;5060025;28;20052;-65
2023/09/16 03:06:04;;;;;;;41.58;10.40;;;34.20;35.40;;;;;;5058688;28;20016;-64
2023/09/16 03:08:30;;;;;;;46.70;10.43;;;34.20;35.40;;;;;;5055176;28;20021;-64
2023/09/16 03:11:04;;;;;;;53.67;10.60;;;34.10;35.50;;;;;;5057355;28;20108;-65
2023/09/16 03:13:30;;;;;;;46.30;11.07;;;34.00;36.10;;;;;;5058672;28;20004;-65
2023/09/16 03:16:13;;;;;;;40.72;11.27;;;34.00;36.90;;;;;;5037308;28;20139;-66
2023/09/16 03:18:44;;;;;;;40.08;11.77;;;34.00;36.30;;;;;;5055786;28;20467;-67
2023/09/16 03:21:10;;;;;;;32.95;10.90;;;33.90;36.40;;;;;;5056449;28;20027;-65
2023/09/16 03:23:37;;;;;;;36.05;10.80;;;33.80;36.50;;;;;;5055746;28;20017;-65
2023/09/16 03:26:03;;;;;;;44.55;11.82;;;33.80;36.20;;;;;;5059086;28;20078;-65
2023/09/16 03:28:30;;;;;;;48.10;10.60;;;33.80;36.60;;;;;;5056830;28;20139;-65
2023/09/16 03:30:56;;;;;;;49.67;10.70;;;33.70;36.20;;;;;;5053794;28;20070;-66
2023/09/16 03:33:23;;;;;;;39.28;10.18;;;33.70;36.60;;;;;;5054463;28;20448;-65
2023/09/16 03:35:49;;;;;;;42.90;12.18;;;33.70;37.00;;;;;;5059678;28;20021;-66
2023/09/16 03:38:16;;;;;;;46.38;11.40;;;33.60;37.30;;;;;;5053596;28;20072;-65
2023/09/16 03:40:43;;;;;;;51.90;11.20;;;33.60;37.30;;;;;;5055147;28;20033;-65
2023/09/16 03:43:09;;;;;;;50.85;12.13;;;33.50;37.60;;;;;;5057524;28;20522;-66
2023/09/16 03:45:35;;;;;;;54.00;13.05;;;33.50;37.60;;;;;;5051007;28;20039;-65
2023/09/16 03:48:10;;;;;;;55.50;14.65;;;33.40;37.30;;;;;;5052580;28;20036;-66
2023/09/16 03:50:36;;;;;;;45.95;13.20;;;33.30;37.30;;;;;;5053703;28;20017;-66
2023/09/16 03:53:03;;;;;;;59.10;13.60;;;33.30;37.50;;;;;;5056812;28;20016;-66
2023/09/16 03:55:30;;;;;;;54.65;13.10;;;33.30;37.70;;;;;;5060139;28;20037;-65
2023/09/16 03:57:56;;;;;;;67.30;13.32;;;33.20;38.20;;;;;;5055807;28;20025;-67
2023/09/16 04:00:23;;;;;;;52.15;12.80;;;33.20;38.40;;;;;;5054553;28;20019;-66
2023/09/16 04:02:49;;;;;;;62.90;14.75;;;33.10;38.60;;;;;;5058965;28;20043;-66
2023/09/16 04:05:16;;;;;;;58.50;16.65;;;33.10;38.90;;;;;;5048518;28;20021;-66
2023/09/16 04:07:42;;;;;;;68.03;15.55;;;33.00;39.00;;;;;;5047219;28;20064;-66
2023/09/16 04:10:09;;;;;;;71.07;16.42;;;33.00;39.40;;;;;;5048102;28;20013;-65
2023/09/16 04:12:36;;;;;;;59.50;14.43;;;32.90;40.20;;;;;;5050221;28;20509;-66
2023/09/16 04:15:03;;;;;;;50.72;14.73;;;32.90;40.40;;;;;;5051815;28;20471;-65
2023/09/16 04:17:30;;;;;;;50.65;13.88;;;32.80;41.10;;;;;;5032890;28;20059;-65
2023/09/16 04:19:56;;;;;;;48.90;13.65;;;32.70;41.40;;;;;;5051055;28;20023;-66
2023/09/16 04:22:23;;;;;;;63.97;14.57;;;32.70;42.10;;;;;;5047724;28;20032;-65
2023/09/16 04:24:49;;;;;;;64.07;14.80;;;32.60;42.10;;;;;;5047538;28;20446;-65
2023/09/16 04:27:16;;;;;;;64.20;15.50;;;32.50;41.60;;;;;;5050257;28;20024;-67
2023/09/16 04:29:42;;;;;;;74.80;15.27;;;32.40;41.50;;;;;;5060342;28;20024;-66
2023/09/16 04:32:09;;;;;;;64.03;13.57;;;32.40;41.90;;;;;;5048548;28;20093;-66
2023/09/16 04:34:35;;;;;;;53.22;14.75;;;32.40;43.10;;;;;;5051071;28;20464;-67
2023/09/16 04:37:02;;;;;;;54.67;14.38;;;32.30;42.90;;;;;;5059242;28;20020;-66
2023/09/16 04:39:29;;;;;;;70.05;16.45;;;32.30;41.90;;;;;;5054513;28;20017;-66
2023/09/16 04:41:55;;;;;;;72.57;17.48;;;32.20;42.20;;;;;;5054738;28;20404;-65
2023/09/16 04:44:23;;;;;;;66.90;16.95;;;32.20;43.10;;;;;;5051494;28;20009;-66
2023/09/16 04:46:55;;;;;;;61.30;16.95;;;32.10;42.40;;;;;;5051333;28;20025;-66
2023/09/16 04:49:23;;;;;;;68.05;18.42;;;32.10;42.90;;;;;;5051007;28;20041;-66
2023/09/16 04:51:49;;;;;;;67.95;17.33;;;32.00;42.80;;;;;;5054941;28;20023;-67
2023/09/16 04:54:16;;;;;;;63.22;16.52;;;32.00;42.90;;;;;;5051859;28;20112;-67
2023/09/16 04:56:42;;;;;;;55.08;15.25;;;31.90;43.30;;;;;;5050751;28;20031;-66
2023/09/16 04:59:09;;;;;;;64.25;15.65;;;31.90;42.80;;;;;;5052238;28;20029;-65
2023/09/16 05:01:35;;;;;;;59.30;14.23;;;31.90;43.80;;;;;;5056603;28;20097;-66
2023/09/16 05:04:01;;;;;;;65.07;15.18;;;31.80;43.90;;;;;;5057397;28;20027;-65
2023/09/16 05:06:28;;;;;;;56.75;14.45;;;31.70;43.50;;;;;;5050506;28;20024;-66
2023/09/16 05:08:54;;;;;;;55.25;13.40;;;31.70;44.30;;;;;;5052634;28;20096;-67
2023/09/16 05:11:21;;;;;;;62.72;15.18;;;31.60;44.00;;;;;;5054021;28;20104;-66
2023/09/16 05:13:50;;;;;;;52.53;13.40;;;31.60;44.50;;;;;;5057785;28;20071;-66
2023/09/16 05:16:16;;;;;;;48.13;13.98;;;31.60;44.10;;;;;;5057284;28;20104;-70
2023/09/16 05:18:43;;;;;;;60.63;15.68;;;31.60;45.90;;;;;;5054139;28;20483;-69
2023/09/16 05:21:10;;;;;;;58.90;15.75;;;31.50;43.80;;;;;;5051447;28;20111;-69
2023/09/16 05:23:37;;;;;;;67.32;15.02;;;31.40;44.10;;;;;;5055936;28;20466;-69
2023/09/16 05:26:09;;;;;;;68.30;17.48;;;31.40;44.90;;;;;;5057516;28;20028;-65
2023/09/16 05:28:35;;;;;;;76.13;20.77;;;31.40;44.50;;;;;;5053344;28;20502;-68
2023/09/16 05:31:03;;;;;;;73.47;19.33;;;31.40;43.70;;;;;;5052280;28;20048;-66
2023/09/16 05:33:30;;;;;;;80.13;19.00;;;31.40;43.40;;;;;;5052122;28;20505;-67
2023/09/16 05:35:56;;;;;;;57.88;17.02;;;31.40;43.80;;;;;;5052760;28;20423;-65
2023/09/16 05:38:23;;;;;;;67.72;17.20;;;31.40;44.50;;;;;;5051062;28;20021;-66
2023/09/16 05:40:49;;;;;;;73.15;17.48;;;31.40;44.10;;;;;;5049767;28;21045;-66
2023/09/16 05:43:15;;;;;;;81.65;20.42;;;31.30;44.10;;;;;;5053758;28;20020;-63
2023/09/16 05:45:42;;;;;;;59.95;17.90;;;31.30;44.40;;;;;;5049595;28;20021;-66
2023/09/16 05:48:08;;;;;;;68.05;21.40;;;31.20;44.80;;;;;;5050999;28;20045;-66
2023/09/16 05:50:35;;;;;;;77.88;26.40;;;31.20;44.20;;;;;;5040227;28;20012;-65
2023/09/16 05:53:03;;;;;;;72.65;23.98;;;31.20;44.00;;;;;;5020626;28;20076;-65
2023/09/16 05:55:30;;;;;;;71.20;19.67;;;31.10;44.00;;;;;;5048385;28;20029;-66
2023/09/16 05:57:56;;;;;;;85.85;20.50;;;31.10;44.20;;;;;;5036926;28;20108;-65
2023/09/16 06:00:25;;;;;;;83.80;18.30;;;31.10;44.40;;;;;;5053903;28;20110;-65
2023/09/16 06:02:52;;;;;;;86.78;19.33;;;31.10;44.40;;;;;;5052175;28;20027;-66
2023/09/16 06:05:18;;;;;;;86.90;19.15;;;31.10;44.70;;;;;;5053151;28;20540;-67
2023/09/16 06:07:45;;;;;;;70.35;18.42;;;31.10;45.00;;;;;;5046103;28;20029;-66
2023/09/16 06:10:12;;;;;;;84.47;18.25;;;31.10;45.50;;;;;;5053932;28;20021;-65
2023/09/16 06:12:38;;;;;;;70.07;19.13;;;31.00;45.60;;;;;;5052224;28;20032;-67
2023/09/16 06:15:05;;;;;;;70.80;19.08;;;31.00;45.40;;;;;;5054489;28;20036;-65
2023/09/16 06:17:31;;;;;;;87.07;20.42;;;31.00;45.10;;;;;;5052110;28;20376;-66
2023/09/16 06:19:58;;;;;;;78.70;21.50;;;31.00;45.20;;;;;;5050394;28;20782;-68
2023/09/16 06:22:24;;;;;;;75.53;21.88;;;31.00;44.80;;;;;;5056136;28;20458;-67
2023/09/16 06:24:52;;;;;;;74.80;20.80;;;30.90;45.20;;;;;;5036920;28;20063;-64
2023/09/16 06:27:19;;;;;;;77.95;21.45;;;30.90;44.80;;;;;;5054868;28;20021;-65
2023/09/16 06:29:46;;;;;;;69.13;19.45;;;30.80;45.20;;;;;;5052463;28;20025;-66
2023/09/16 06:32:14;;;;;;;97.82;21.67;;;30.80;44.80;;;;;;5048520;28;20459;-65
2023/09/16 06:34:40;;;;;;;88.88;21.80;;;30.70;44.80;;;;;;5050326;28;20029;-65
2023/09/16 06:37:06;;;;;;;69.57;19.10;;;30.70;45.20;;;;;;5054772;28;20468;-66
2023/09/16 06:39:33;;;;;;;71.40;19.38;;;30.70;46.70;;;;;;5035482;28;20055;-66
2023/09/16 06:41:59;;;;;;;73.75;19.77;;;30.60;46.40;;;;;;5048894;28;20017;-65
2023/09/16 06:44:26;;;;;;;64.80;18.00;;;30.60;46.00;;;;;;5052590;28;20127;-65
2023/09/16 06:46:52;;;;;;;59.05;17.75;;;30.60;47.20;;;;;;5054001;28;20024;-64
2023/09/16 06:49:19;;;;;;;50.75;14.55;;;30.60;46.30;;;;;;5053443;28;20035;-65
2023/09/16 06:51:45;;;;;;;91.20;14.63;;;30.50;45.40;;;;;;5055539;28;20021;-65
2023/09/16 06:54:11;;;;;;;45.75;13.05;;;30.40;45.40;;;;;;5048320;28;20041;-67
2023/09/16 06:56:38;;;;;;;30.27;9.48;;;30.50;45.70;;;;;;5050281;28;20148;-67
2023/09/16 06:59:04;;;;;;;34.20;9.18;;;30.50;45.60;;;;;;5055921;28;20017;-66
2023/09/16 07:01:32;;;;;;;35.33;7.10;;;30.60;45.60;;;;;;5053027;28;20009;-66
2023/09/16 07:03:58;;;;;;;34.53;7.78;;;30.60;45.30;;;;;;5051227;28;20017;-67
2023/09/16 07:06:25;;;;;;;23.02;6.13;;;30.60;45.60;;;;;;5051082;28;20017;-67
2023/09/16 07:08:51;;;;;;;29.67;6.03;;;30.60;45.50;;;;;;5048414;28;20125;-66
2023/09/16 07:11:18;;;;;;;19.50;5.68;;;30.60;45.80;;;;;;5056096;28;20115;-67
2023/09/16 07:13:44;;;;;;;29.17;5.60;;;30.60;46.10;;;;;;5052299;28;20021;-67
2023/09/16 07:16:15;;;;;;;55.70;7.85;;;30.60;46.30;;;;;;5049499;28;20019;-66
2023/09/16 07:18:41;;;;;;;42.28;5.75;;;30.60;46.30;;;;;;5048882;28;20398;-67
2023/09/16 07:21:08;;;;;;;28.02;4.40;;;30.50;46.90;;;;;;5055176;28;20035;-66
2023/09/16 07:23:34;;;;;;;18.85;4.18;;;30.50;46.60;;;;;;5053856;28;20048;-64
2023/09/16 07:26:01;;;;;;;19.13;5.18;;;30.50;47.20;;;;;;5048735;28;20016;-67
2023/09/16 07:28:28;;;;;;;18.65;4.97;;;30.40;46.60;;;;;;5053375;28;20033;-66
2023/09/16 07:30:55;;;;;;;24.58;5.03;;;30.40;46.80;;;;;;5054274;28;20367;-66
2023/09/16 07:33:22;;;;;;;24.20;4.55;;;30.30;47.10;;;;;;5052918;28;20013;-66
2023/09/16 07:35:51;;;;;;;14.23;4.63;;;30.30;47.00;;;;;;5051719;28;20031;-66
2023/09/16 07:38:17;;;;;;;22.15;4.20;;;30.20;46.90;;;;;;5050498;28;20017;-68
2023/09/16 07:40:44;;;;;;;14.75;4.07;;;30.30;47.10;;;;;;5055850;28;20071;-66
2023/09/16 07:43:11;;;;;;;20.67;4.78;;;30.30;47.30;;;;;;5048703;28;20029;-66
2023/09/16 07:45:38;;;;;;;17.92;4.65;;;30.30;47.20;;;;;;5049693;28;20028;-66
2023/09/16 07:48:09;;;;;;;13.48;4.57;;;30.20;47.50;;;;;;5049794;28;20052;-63
2023/09/16 07:50:36;;;;;;;18.38;5.05;;;30.20;47.00;;;;;;5050528;28;20017;-66
2023/09/16 07:53:02;;;;;;;14.35;4.50;;;30.10;47.00;;;;;;5051011;28;20444;-66
2023/09/16 07:55:28;;;;;;;15.05;4.00;;;30.20;47.10;;;;;;5038232;28;20449;-67
2023/09/16 07:57:55;;;;;;;14.10;4.85;;;30.20;46.70;;;;;;5054571;28;20017;-65
2023/09/16 08:00:21;;;;;;;12.82;4.22;;;30.20;46.50;;;;;;5050191;28;20483;-66
2023/09/16 08:02:48;;;;;;;17.50;3.90;;;30.20;46.60;;;;;;5052599;28;20100;-66
2023/09/16 08:05:14;;;;;;;14.15;4.35;;;30.20;46.30;;;;;;5052632;28;20023;-66
2023/09/16 08:07:40;;;;;;;14.32;4.05;;;30.20;46.30;;;;;;5052605;28;20060;-65
2023/09/16 08:10:08;;;;;;;17.45;4.50;;;30.20;46.50;;;;;;5056734;28;20023;-66
2023/09/16 08:12:34;;;;;;;13.68;3.95;;;30.20;46.30;;;;;;5054756;28;20036;-66
2023/09/16 08:15:02;;;;;;;18.65;4.68;;;30.20;46.60;;;;;;5054635;28;20427;-66
2023/09/16 08:17:29;;;;;;;11.65;4.28;;;30.20;46.80;;;;;;5055376;28;20028;-66
2023/09/16 08:19:55;;;;;;;17.92;4.25;;;30.20;46.80;;;;;;5055799;28;20475;-66
2023/09/16 08:22:22;;;;;;;13.35;4.28;;;30.10;48.10;;;;;;5054586;28;20024;-67
2023/09/16 08:24:49;;;;;;;24.17;4.03;;;30.10;46.70;;;;;;5056196;28;20381;-66
2023/09/16 08:27:15;;;;;;;20.33;10.52;;;30.10;46.30;;;;;;5055240;28;20024;-65
2023/09/16 08:29:43;;;;;;;21.77;8.35;;;30.10;47.20;;;;;;5055080;28;20019;-67
2023/09/16 08:32:09;;;;;;;17.35;9.05;;;30.10;47.40;;;;;;5051205;28;20039;-66
2023/09/16 08:34:36;;;;;;;20.00;9.82;;;30.10;47.10;;;;;;5057270;28;20021;-66
2023/09/16 08:37:02;;;;;;;10.25;3.90;;;30.00;47.50;;;;;;5055743;28;20100;-67
2023/09/16 08:39:29;;;;;;;13.85;3.97;;;30.00;47.50;;;;;;5055364;28;20096;-67
2023/09/16 08:42:13;;;;;;;14.73;4.40;;;29.90;47.20;;;;;;5053601;28;20025;-64
2023/09/16 08:44:45;;;;;;;14.60;4.80;;;29.80;47.40;;;;;;5054699;28;20021;-66
2023/09/16 08:47:18;;;;;;;17.20;4.50;;;29.80;47.80;;;;;;5038959;28;20028;-66
2023/09/16 08:49:52;;;;;;;14.88;4.43;;;29.80;48.20;;;;;;5060027;28;20005;-67
2023/09/16 08:52:21;;;;;;;13.45;4.15;;;29.80;47.30;;;;;;5037709;28;20361;-66
2023/09/16 08:54:49;;;;;;;13.02;3.88;;;29.80;46.10;;;;;;5050729;28;20013;-65
2023/09/16 08:57:16;;;;;;;10.57;3.83;;;29.80;46.20;;;;;;5054556;28;20017;-66
2023/09/16 08:59:44;;;;;;;12.60;4.07;;;29.80;46.80;;;;;;5059346;28;20491;-65
2023/09/16 09:02:11;;;;;;;10.23;3.72;;;29.80;47.20;;;;;;5053221;28;20025;-66
2023/09/16 09:04:39;;;;;;;12.43;4.00;;;29.70;46.40;;;;;;5054900;28;21020;-67
2023/09/16 09:07:06;;;;;;;19.67;3.78;;;29.80;46.70;;;;;;5056424;28;20375;-66
2023/09/16 09:09:32;;;;;;;9.23;3.80;;;29.70;46.60;;;;;;5056044;28;20016;-67
2023/09/16 09:12:00;;;;;;;10.75;3.63;;;29.70;46.60;;;;;;5052721;28;20021;-66
2023/09/16 09:14:27;;;;;;;14.07;4.10;;;29.70;46.30;;;;;;5055191;28;20078;-65
2023/09/16 09:16:55;;;;;;;18.08;3.50;;;29.70;45.90;;;;;;5052061;28;20080;-65
2023/09/16 09:19:22;;;;;;;14.07;3.30;;;29.70;45.90;;;;;;5050252;28;20040;-65
2023/09/16 09:21:50;;;;;;;12.43;3.35;;;29.70;46.20;;;;;;5057572;28;20099;-65
2023/09/16 09:24:16;;;;;;;14.02;4.18;;;29.70;46.10;;;;;;5052660;28;20401;-65
2023/09/16 09:26:43;;;;;;;11.35;3.40;;;29.60;46.00;;;;;;5049460;28;20021;-67
2023/09/16 09:29:12;;;;;;;18.98;3.83;;;29.60;46.00;;;;;;5051467;28;20060;-66
2023/09/16 09:31:40;;;;;;;15.50;4.10;;;29.60;46.80;;;;;;5051584;28;20009;-67
2023/09/16 09:34:18;;;;;;;18.23;4.78;;;29.50;45.80;;;;;;5054198;28;20079;-66
2023/09/16 09:36:48;;;;;;;29.52;6.82;;;29.50;46.10;;;;;;5053982;28;20356;-67
2023/09/16 09:39:14;;;;;;;22.80;5.93;;;29.40;46.60;;;;;;5052994;28;20017;-66
2023/09/16 09:41:46;;;;;;;25.63;6.13;;;29.40;46.90;;;;;;5051984;28;20807;-66
2023/09/16 09:44:16;;;;;;;32.58;6.70;;;29.40;47.70;;;;;;5051715;28;20017;-67
2023/09/16 09:46:42;;;;;;;68.18;11.98;;;29.40;47.50;;;;;;5054747;28;20028;-67
2023/09/16 09:49:11;;;;;;;76.43;13.77;;;29.30;48.20;;;;;;5051044;28;20479;-64
2023/09/16 09:51:38;;;;;;;80.25;14.43;;;29.40;48.90;;;;;;5054438;28;20488;-67
2023/09/16 09:54:06;;;;;;;59.25;13.00;;;29.30;49.10;;;;;;5058523;28;20063;-65
2023/09/16 09:56:33;;;;;;;62.40;14.07;;;29.30;49.10;;;;;;5056549;28;20423;-66
2023/09/16 09:59:00;;;;;;;59.42;14.73;;;29.20;50.10;;;;;;5051347;28;20032;-66
2023/09/16 10:01:34;;;;;;;72.65;15.80;;;29.20;50.20;;;;;;5060372;28;20020;-66
2023/09/16 10:04:02;;;;;;;67.13;16.17;;;29.10;50.60;;;;;;5057253;28;20055;-66
2023/09/16 10:06:28;;;;;;;66.47;16.00;;;29.00;50.60;;;;;;5057758;28;20039;-66
2023/09/16 10:08:55;;;;;;;85.55;16.55;;;29.00;50.30;;;;;;5055180;28;20029;-67
2023/09/16 10:11:21;;;;;;;80.15;16.88;;;29.00;50.20;;;;;;5059346;28;20020;-64
2023/09/16 10:13:50;;;;;;;81.32;18.35;;;28.90;50.20;;;;;;5056992;28;20099;-64
2023/09/16 10:16:16;;;;;;;69.05;16.92;;;28.80;50.20;;;;;;5058751;28;20013;-66
2023/09/16 10:18:43;;;;;;;92.80;19.23;;;28.80;50.80;;;;;;5050562;28;20028;-67
2023/09/16 10:21:12;;;;;;;67.57;16.67;;;28.80;51.70;;;;;;5055004;28;20111;-66
2023/09/16 10:23:39;;;;;;;65.97;18.48;;;28.70;51.90;;;;;;5051663;28;20020;-67
2023/09/16 10:26:05;;;;;;;98.22;20.17;;;28.70;51.90;;;;;;5055245;28;20082;-65
2023/09/16 10:28:34;;;;;;;96.35;20.00;;;28.70;51.50;;;;;;5050817;28;20541;-65
2023/09/16 10:31:01;;;;;;;89.78;18.35;;;28.60;51.10;;;;;;5049859;28;20483;-66
2023/09/16 10:33:27;;;;;;;93.68;19.48;;;28.50;51.40;;;;;;5039910;28;20029;-65
2023/09/16 10:35:54;;;;;;;81.05;18.75;;;28.40;51.70;;;;;;5054513;28;20495;-66
2023/09/16 10:38:22;;;;;;;83.63;19.42;;;28.50;51.80;;;;;;5054086;28;20913;-64
2023/09/16 10:40:50;;;;;;;65.78;18.30;;;28.40;51.90;;;;;;5053415;28;20487;-65
2023/09/16 10:43:17;;;;;;;88.47;18.85;;;28.40;52.40;;;;;;5052149;28;21731;-65
2023/09/16 10:45:45;;;;;;;88.25;21.45;;;28.30;52.40;;;;;;5051337;28;20020;-66
2023/09/16 10:48:12;;;;;;;102.97;21.08;;;28.30;52.20;;;;;;5048685;28;20043;-68
2023/09/16 10:50:39;;;;;;;123.07;22.02;;;28.20;51.60;;;;;;5052191;28;20013;-67
2023/09/16 10:53:12;;;;;;;79.47;20.13;;;28.20;51.80;;;;;;5053043;28;20025;-67
2023/09/16 10:55:51;;;;;;;121.90;23.73;;;28.20;52.40;;;;;;5049485;28;20025;-67
2023/09/16 10:58:31;;;;;;;91.40;22.55;;;28.10;52.00;;;;;;5046989;28;20085;-66
2023/09/16 11:00:58;;;;;;;119.45;25.50;;;28.10;53.60;;;;;;5050904;28;20632;-66
2023/09/16 11:03:31;;;;;;;96.22;24.70;;;28.00;53.00;;;;;;5050262;28;21952;-66
2023/09/16 11:05:59;;;;;;;123.18;29.02;;;28.00;53.60;;;;;;5037344;28;20107;-67
2023/09/16 11:08:26;;;;;;;106.70;28.67;;;28.00;53.50;;;;;;5049367;28;20678;-66
2023/09/16 11:10:55;;;;;;;88.85;24.95;;;27.90;53.20;;;;;;5050987;28;20017;-66
2023/09/16 11:13:24;;;;;;;84.38;26.25;;;27.90;53.70;;;;;;5054169;28;20020;-66
2023/09/16 11:15:50;;;;;;;88.57;26.23;;;27.80;54.20;;;;;;5035820;28;20101;-67
2023/09/16 11:18:18;;;;;;;85.70;26.45;;;27.70;54.40;;;;;;5050076;28;20039;-66
2023/09/16 11:20:46;;;;;;;84.95;25.42;;;27.60;54.80;;;;;;5050685;28;20021;-66
2023/09/16 11:23:13;;;;;;;91.82;27.20;;;27.60;54.70;;;;;;5053614;28;20423;-66
2023/09/16 11:25:41;;;;;;;89.20;25.08;;;27.60;54.70;;;;;;5053113;28;20051;-65
2023/09/16 11:28:14;;;;;;;94.18;27.23;;;27.50;55.90;;;;;;5050274;28;20067;-66
2023/09/16 11:30:54;;;;;;;87.15;26.55;;;27.50;56.00;;;;;;5051613;28;20070;-65
2023/09/16 11:33:33;;;;;;;103.53;27.33;;;27.50;56.00;;;;;;5051673;28;20133;-65
2023/09/16 11:36:19;;;;;;;91.70;25.95;;;27.50;55.20;;;;;;5049497;28;20042;-66
2023/09/16 11:39:15;;;;;;;96.67;25.53;;;27.60;55.30;;;;;;5049797;28;20393;-68
2023/09/16 11:41:42;;;;;;;99.22;26.95;;;27.60;55.20;;;;;;5053835;28;20100;-66
2023/09/16 11:44:09;;;;;;;82.68;24.02;;;27.60;55.50;;;;;;5055365;28;20111;-67
2023/09/16 11:46:36;;;;;;;85.63;27.48;;;27.60;55.40;;;;;;5055125;28;20024;-66
2023/09/16 11:49:05;;;;;;;72.90;21.15;;;27.60;55.40;;;;;;5053651;28;20055;-66
2023/09/16 11:51:36;;;;;;;75.22;22.55;;;27.50;56.20;;;;;;5057231;28;20039;-66
2023/09/16 11:54:03;;;;;;;85.63;22.60;;;27.50;56.00;;;;;;5051223;28;20005;-64
2023/09/16 11:56:35;;;;;;;67.10;20.77;;;27.50;56.00;;;;;;5052383;28;20082;-66
2023/09/16 11:59:03;;;;;;;77.25;21.48;;;27.50;57.10;;;;;;5055278;28;20051;-66
2023/09/16 12:01:36;;;;;;;83.00;21.73;;;27.50;56.70;;;;;;5051603;28;20017;-64
2023/09/16 12:04:05;;;;;;;86.93;22.35;;;27.40;57.80;;;;;;5054406;28;20092;-66
2023/09/16 12:06:36;;;;;;;98.43;23.58;;;27.40;57.30;;;;;;5051359;28;20445;-65
2023/09/16 12:09:05;;;;;;;85.97;24.40;;;27.30;57.00;;;;;;5053689;28;20194;-66
2023/09/16 12:11:33;;;;;;;79.13;23.80;;;27.30;57.20;;;;;;5052161;28;20044;-66
2023/09/16 12:14:00;;;;;;;76.38;23.58;;;27.30;57.30;;;;;;5056640;28;20051;-65
2023/09/16 12:16:30;;;;;;;80.72;23.30;;;27.20;58.10;;;;;;5053422;28;20075;-65
2023/09/16 12:18:57;;;;;;;80.75;21.60;;;27.20;57.80;;;;;;5054176;28;20052;-67
2023/09/16 12:21:23;;;;;;;77.50;21.60;;;27.30;58.30;;;;;;5052903;28;20039;-65
2023/09/16 12:23:51;;;;;;;95.72;24.10;;;27.20;58.10;;;;;;5052758;28;20043;-65
2023/09/16 12:26:18;;;;;;;87.18;23.05;;;27.20;58.30;;;;;;5057117;28;20021;-64
2023/09/16 12:28:44;;;;;;;69.25;21.10;;;27.20;58.00;;;;;;5039453;28;20070;-66
2023/09/16 12:31:11;;;;;;;82.10;22.70;;;27.20;58.50;;;;;;5055034;28;20042;-65
2023/09/16 12:33:48;;;;;;;64.97;20.00;;;27.20;59.00;;;;;;5053724;28;21769;-65